sensor_id;sensor_type;location;lat;lon;timestamp;temperature;humidity
29803;DHT22;16702;50.898;4.662;2023-03-21T00:02:14;12.20;99.90
29803;DHT22;16702;50.898;4.662;2023-03-21T00:04:48;12.30;99.90
29803;DHT22;16702;50.898;4.662;2023-03-21T00:07:22;12.30;99.90
29803;DHT22;16702;50.898;4.662;2023-03-21T00:09:53;12.30;99.90
29803;DHT22;16702;50.898;4.662;2023-03-21T00:12:40;12.20;99.90
29803;DHT22;16702;50.898;4.662;2023-03-21T00:15:12;12.30;99.90
29803;DHT22;16702;50.898;4.662;2023-03-21T00:17:49;12.20;99.90
29803;DHT22;16702;50.898;4.662;2023-03-21T00:21:00;12.20;99.90
29803;DHT22;16702;50.898;4.662;2023-03-21T00:24:19;12.20;99.90
29803;DHT22;16702;50.898;4.662;2023-03-21T00:26:49;12.20;99.90
29803;DHT22;16702;50.898;4.662;2023-03-21T00:29:21;12.20;99.90
29803;DHT22;16702;50.898;4.662;2023-03-21T00:31:51;12.20;99.90
29803;DHT22;16702;50.898;4.662;2023-03-21T00:34:29;12.20;99.90
29803;DHT22;16702;50.898;4.662;2023-03-21T00:37:23;12.20;99.90
29803;DHT22;16702;50.898;4.662;2023-03-21T00:39:54;12.20;99.90
29803;DHT22;16702;50.898;4.662;2023-03-21T00:42:25;12.20;99.90
29803;DHT22;16702;50.898;4.662;2023-03-21T00:44:56;12.20;99.90
29803;DHT22;16702;50.898;4.662;2023-03-21T00:47:28;12.20;99.90
29803;DHT22;16702;50.898;4.662;2023-03-21T00:49:58;12.20;99.90
29803;DHT22;16702;50.898;4.662;2023-03-21T00:52:33;12.20;99.90
29803;DHT22;16702;50.898;4.662;2023-03-21T00:55:13;12.20;99.90
29803;DHT22;16702;50.898;4.662;2023-03-21T00:57:46;12.20;99.90
29803;DHT22;16702;50.898;4.662;2023-03-21T01:00:28;12.20;99.90
29803;DHT22;16702;50.898;4.662;2023-03-21T01:02:59;12.20;99.90
29803;DHT22;16702;50.898;4.662;2023-03-21T01:05:49;12.20;99.90
29803;DHT22;16702;50.898;4.662;2023-03-21T01:08:40;12.20;99.90
29803;DHT22;16702;50.898;4.662;2023-03-21T01:11:27;12.20;99.90
29803;DHT22;16702;50.898;4.662;2023-03-21T01:13:58;12.20;99.90
29803;DHT22;16702;50.898;4.662;2023-03-21T01:16:47;12.20;99.90
29803;DHT22;16702;50.898;4.662;2023-03-21T01:19:20;12.20;99.90
29803;DHT22;16702;50.898;4.662;2023-03-21T01:22:08;12.20;99.90
29803;DHT22;16702;50.898;4.662;2023-03-21T01:24:43;12.10;99.90
29803;DHT22;16702;50.898;4.662;2023-03-21T01:27:23;12.20;99.90
29803;DHT22;16702;50.898;4.662;2023-03-21T01:30:03;12.20;99.90
29803;DHT22;16702;50.898;4.662;2023-03-21T01:32:47;12.20;99.90
29803;DHT22;16702;50.898;4.662;2023-03-21T01:35:20;12.20;99.90
29803;DHT22;16702;50.898;4.662;2023-03-21T01:37:51;12.20;99.90
29803;DHT22;16702;50.898;4.662;2023-03-21T01:40:26;12.20;99.90
29803;DHT22;16702;50.898;4.662;2023-03-21T01:43:19;12.20;99.90
29803;DHT22;16702;50.898;4.662;2023-03-21T01:49:36;12.20;99.90
29803;DHT22;16702;50.898;4.662;2023-03-21T01:52:16;12.20;99.90
29803;DHT22;16702;50.898;4.662;2023-03-21T01:55:12;12.20;99.90
29803;DHT22;16702;50.898;4.662;2023-03-21T01:58:02;12.20;99.90
29803;DHT22;16702;50.898;4.662;2023-03-21T02:00:48;12.20;99.90
29803;DHT22;16702;50.898;4.662;2023-03-21T02:03:33;12.20;99.90
29803;DHT22;16702;50.898;4.662;2023-03-21T02:06:29;12.20;99.90
29803;DHT22;16702;50.898;4.662;2023-03-21T02:09:14;12.20;99.90
29803;DHT22;16702;50.898;4.662;2023-03-21T02:11:45;12.20;99.90
29803;DHT22;16702;50.898;4.662;2023-03-21T02:14:19;12.20;99.90
29803;DHT22;16702;50.898;4.662;2023-03-21T02:17:15;12.20;99.90
29803;DHT22;16702;50.898;4.662;2023-03-21T02:23:17;12.20;99.90
29803;DHT22;16702;50.898;4.662;2023-03-21T02:29:05;12.20;99.90
29803;DHT22;16702;50.898;4.662;2023-03-21T02:31:48;12.20;99.90
29803;DHT22;16702;50.898;4.662;2023-03-21T02:35:02;12.20;99.90
29803;DHT22;16702;50.898;4.662;2023-03-21T02:37:39;12.20;99.90
29803;DHT22;16702;50.898;4.662;2023-03-21T02:40:25;12.20;99.90
29803;DHT22;16702;50.898;4.662;2023-03-21T02:43:02;12.20;99.90
29803;DHT22;16702;50.898;4.662;2023-03-21T02:45:51;12.20;99.90
29803;DHT22;16702;50.898;4.662;2023-03-21T02:48:25;12.30;99.90
29803;DHT22;16702;50.898;4.662;2023-03-21T02:51:17;12.20;99.90
29803;DHT22;16702;50.898;4.662;2023-03-21T02:53:55;12.20;99.90
29803;DHT22;16702;50.898;4.662;2023-03-21T02:56:50;12.20;99.90
29803;DHT22;16702;50.898;4.662;2023-03-21T02:59:22;12.20;99.90
29803;DHT22;16702;50.898;4.662;2023-03-21T03:01:56;12.30;99.90
29803;DHT22;16702;50.898;4.662;2023-03-21T03:04:27;12.20;99.90
29803;DHT22;16702;50.898;4.662;2023-03-21T03:07:28;12.30;99.90
29803;DHT22;16702;50.898;4.662;2023-03-21T03:10:21;12.20;99.90
29803;DHT22;16702;50.898;4.662;2023-03-21T03:13:02;12.20;99.90
29803;DHT22;16702;50.898;4.662;2023-03-21T03:15:44;12.20;99.90
29803;DHT22;16702;50.898;4.662;2023-03-21T03:18:23;12.20;99.90
29803;DHT22;16702;50.898;4.662;2023-03-21T03:21:02;12.20;99.90
29803;DHT22;16702;50.898;4.662;2023-03-21T03:23:41;12.20;99.90
29803;DHT22;16702;50.898;4.662;2023-03-21T03:26:18;12.20;99.90
29803;DHT22;16702;50.898;4.662;2023-03-21T03:28:53;12.10;99.90
29803;DHT22;16702;50.898;4.662;2023-03-21T03:31:27;12.20;99.90
29803;DHT22;16702;50.898;4.662;2023-03-21T03:34:01;12.20;99.90
29803;DHT22;16702;50.898;4.662;2023-03-21T03:36:40;12.20;99.90
29803;DHT22;16702;50.898;4.662;2023-03-21T03:39:16;12.20;99.90
29803;DHT22;16702;50.898;4.662;2023-03-21T03:42:02;12.20;99.90
29803;DHT22;16702;50.898;4.662;2023-03-21T03:44:58;12.30;99.90
29803;DHT22;16702;50.898;4.662;2023-03-21T03:47:35;12.30;99.90
29803;DHT22;16702;50.898;4.662;2023-03-21T03:50:27;12.30;99.90
29803;DHT22;16702;50.898;4.662;2023-03-21T03:53:02;12.30;99.90
29803;DHT22;16702;50.898;4.662;2023-03-21T03:55:44;12.30;99.90
29803;DHT22;16702;50.898;4.662;2023-03-21T03:58:20;12.30;99.90
29803;DHT22;16702;50.898;4.662;2023-03-21T04:01:06;12.30;99.90
29803;DHT22;16702;50.898;4.662;2023-03-21T04:03:39;12.30;99.90
29803;DHT22;16702;50.898;4.662;2023-03-21T04:06:19;12.30;99.90
29803;DHT22;16702;50.898;4.662;2023-03-21T04:08:52;12.30;99.90
29803;DHT22;16702;50.898;4.662;2023-03-21T04:11:22;12.30;99.90
29803;DHT22;16702;50.898;4.662;2023-03-21T04:13:57;12.30;99.90
29803;DHT22;16702;50.898;4.662;2023-03-21T04:16:29;12.40;99.90
29803;DHT22;16702;50.898;4.662;2023-03-21T04:19:02;12.40;99.90
29803;DHT22;16702;50.898;4.662;2023-03-21T04:21:33;12.30;99.90
29803;DHT22;16702;50.898;4.662;2023-03-21T04:24:04;12.30;99.90
29803;DHT22;16702;50.898;4.662;2023-03-21T04:26:35;12.40;99.90
29803;DHT22;16702;50.898;4.662;2023-03-21T04:29:26;12.40;99.90
29803;DHT22;16702;50.898;4.662;2023-03-21T04:32:16;12.40;99.90
29803;DHT22;16702;50.898;4.662;2023-03-21T04:35:02;12.30;99.90
29803;DHT22;16702;50.898;4.662;2023-03-21T04:37:33;12.40;99.90
29803;DHT22;16702;50.898;4.662;2023-03-21T04:40:09;12.30;99.90
29803;DHT22;16702;50.898;4.662;2023-03-21T04:42:45;12.40;99.90
29803;DHT22;16702;50.898;4.662;2023-03-21T04:45:18;12.40;99.90
29803;DHT22;16702;50.898;4.662;2023-03-21T04:47:48;12.30;99.90
29803;DHT22;16702;50.898;4.662;2023-03-21T04:50:19;12.40;99.90
29803;DHT22;16702;50.898;4.662;2023-03-21T04:52:49;12.40;99.90
29803;DHT22;16702;50.898;4.662;2023-03-21T04:55:20;12.40;99.90
29803;DHT22;16702;50.898;4.662;2023-03-21T04:57:52;12.40;99.90
29803;DHT22;16702;50.898;4.662;2023-03-21T05:00:25;12.40;99.90
29803;DHT22;16702;50.898;4.662;2023-03-21T05:02:56;12.40;99.90
29803;DHT22;16702;50.898;4.662;2023-03-21T05:05:27;12.30;99.90
29803;DHT22;16702;50.898;4.662;2023-03-21T05:07:57;12.40;99.90
29803;DHT22;16702;50.898;4.662;2023-03-21T05:10:28;12.40;99.90
29803;DHT22;16702;50.898;4.662;2023-03-21T05:12:58;12.40;99.90
29803;DHT22;16702;50.898;4.662;2023-03-21T05:15:31;12.30;99.90
29803;DHT22;16702;50.898;4.662;2023-03-21T05:18:02;12.30;99.90
29803;DHT22;16702;50.898;4.662;2023-03-21T05:20:52;12.40;99.90
29803;DHT22;16702;50.898;4.662;2023-03-21T05:23:23;12.40;99.90
29803;DHT22;16702;50.898;4.662;2023-03-21T05:25:58;12.30;99.90
29803;DHT22;16702;50.898;4.662;2023-03-21T05:28:37;12.40;99.90
29803;DHT22;16702;50.898;4.662;2023-03-21T05:31:11;12.40;99.90
29803;DHT22;16702;50.898;4.662;2023-03-21T05:33:45;12.40;99.90
29803;DHT22;16702;50.898;4.662;2023-03-21T05:36:18;12.40;99.90
29803;DHT22;16702;50.898;4.662;2023-03-21T05:38:49;12.40;99.90
29803;DHT22;16702;50.898;4.662;2023-03-21T05:41:19;12.40;99.90
29803;DHT22;16702;50.898;4.662;2023-03-21T05:43:50;12.30;99.90
29803;DHT22;16702;50.898;4.662;2023-03-21T05:46:23;12.30;99.90
29803;DHT22;16702;50.898;4.662;2023-03-21T05:48:54;12.30;99.90
29803;DHT22;16702;50.898;4.662;2023-03-21T05:51:25;12.30;99.90
29803;DHT22;16702;50.898;4.662;2023-03-21T05:53:55;12.30;99.90
29803;DHT22;16702;50.898;4.662;2023-03-21T05:56:26;12.30;99.90
29803;DHT22;16702;50.898;4.662;2023-03-21T05:59:01;12.30;99.90
29803;DHT22;16702;50.898;4.662;2023-03-21T06:01:40;12.30;99.90
29803;DHT22;16702;50.898;4.662;2023-03-21T06:04:14;12.30;99.90
29803;DHT22;16702;50.898;4.662;2023-03-21T06:06:45;12.30;99.90
29803;DHT22;16702;50.898;4.662;2023-03-21T06:09:15;12.30;99.90
29803;DHT22;16702;50.898;4.662;2023-03-21T06:11:54;12.30;99.90
29803;DHT22;16702;50.898;4.662;2023-03-21T06:14:47;12.20;99.90
29803;DHT22;16702;50.898;4.662;2023-03-21T06:17:25;12.30;99.90
29803;DHT22;16702;50.898;4.662;2023-03-21T06:20:00;12.30;99.90
29803;DHT22;16702;50.898;4.662;2023-03-21T06:22:36;12.30;99.90
29803;DHT22;16702;50.898;4.662;2023-03-21T06:25:07;12.20;99.90
29803;DHT22;16702;50.898;4.662;2023-03-21T06:27:39;12.20;99.90
29803;DHT22;16702;50.898;4.662;2023-03-21T06:30:11;12.20;99.90
29803;DHT22;16702;50.898;4.662;2023-03-21T06:32:56;12.20;99.90
29803;DHT22;16702;50.898;4.662;2023-03-21T06:35:26;12.20;99.90
29803;DHT22;16702;50.898;4.662;2023-03-21T06:37:57;12.20;99.90
29803;DHT22;16702;50.898;4.662;2023-03-21T06:40:31;12.20;99.90
29803;DHT22;16702;50.898;4.662;2023-03-21T06:43:01;12.20;99.90
29803;DHT22;16702;50.898;4.662;2023-03-21T06:45:32;12.10;99.90
29803;DHT22;16702;50.898;4.662;2023-03-21T06:48:06;12.10;99.90
29803;DHT22;16702;50.898;4.662;2023-03-21T06:50:44;12.10;99.90
29803;DHT22;16702;50.898;4.662;2023-03-21T06:53:19;12.10;99.90
29803;DHT22;16702;50.898;4.662;2023-03-21T06:56:11;12.10;99.90
29803;DHT22;16702;50.898;4.662;2023-03-21T06:58:44;12.10;99.90
29803;DHT22;16702;50.898;4.662;2023-03-21T07:01:26;12.10;99.90
29803;DHT22;16702;50.898;4.662;2023-03-21T07:04:07;12.10;99.90
29803;DHT22;16702;50.898;4.662;2023-03-21T07:06:38;12.10;99.90
29803;DHT22;16702;50.898;4.662;2023-03-21T07:09:09;12.10;99.90
29803;DHT22;16702;50.898;4.662;2023-03-21T07:11:40;12.10;99.90
29803;DHT22;16702;50.898;4.662;2023-03-21T07:14:10;12.10;99.90
29803;DHT22;16702;50.898;4.662;2023-03-21T07:16:40;12.10;99.90
29803;DHT22;16702;50.898;4.662;2023-03-21T07:19:15;12.10;99.90
29803;DHT22;16702;50.898;4.662;2023-03-21T07:21:45;12.10;99.90
29803;DHT22;16702;50.898;4.662;2023-03-21T07:24:15;12.10;99.90
29803;DHT22;16702;50.898;4.662;2023-03-21T07:26:46;12.00;99.90
29803;DHT22;16702;50.898;4.662;2023-03-21T07:29:17;12.10;99.90
29803;DHT22;16702;50.898;4.662;2023-03-21T07:31:48;12.00;99.90
29803;DHT22;16702;50.898;4.662;2023-03-21T07:34:24;12.00;99.90
29803;DHT22;16702;50.898;4.662;2023-03-21T07:37:02;12.00;99.90
29803;DHT22;16702;50.898;4.662;2023-03-21T07:39:33;12.00;99.90
29803;DHT22;16702;50.898;4.662;2023-03-21T07:42:04;12.10;99.90
29803;DHT22;16702;50.898;4.662;2023-03-21T07:44:38;12.00;99.90
29803;DHT22;16702;50.898;4.662;2023-03-21T07:47:09;12.00;99.90
29803;DHT22;16702;50.898;4.662;2023-03-21T07:49:42;12.10;99.90
29803;DHT22;16702;50.898;4.662;2023-03-21T07:52:12;12.10;99.90
29803;DHT22;16702;50.898;4.662;2023-03-21T07:54:43;12.10;99.90
29803;DHT22;16702;50.898;4.662;2023-03-21T07:57:14;12.20;99.90
29803;DHT22;16702;50.898;4.662;2023-03-21T07:59:44;12.20;99.90
29803;DHT22;16702;50.898;4.662;2023-03-21T08:02:15;12.10;99.90
29803;DHT22;16702;50.898;4.662;2023-03-21T08:04:48;12.10;99.90
29803;DHT22;16702;50.898;4.662;2023-03-21T08:07:19;12.20;99.90
29803;DHT22;16702;50.898;4.662;2023-03-21T08:09:49;12.20;99.90
29803;DHT22;16702;50.898;4.662;2023-03-21T08:12:20;12.20;99.90
29803;DHT22;16702;50.898;4.662;2023-03-21T08:14:50;12.20;99.90
29803;DHT22;16702;50.898;4.662;2023-03-21T08:17:20;12.20;99.90
29803;DHT22;16702;50.898;4.662;2023-03-21T08:19:53;12.20;99.90
29803;DHT22;16702;50.898;4.662;2023-03-21T08:22:24;12.20;99.90
29803;DHT22;16702;50.898;4.662;2023-03-21T08:24:54;12.20;99.90
29803;DHT22;16702;50.898;4.662;2023-03-21T08:27:24;12.20;99.90
29803;DHT22;16702;50.898;4.662;2023-03-21T08:29:55;12.20;99.90
29803;DHT22;16702;50.898;4.662;2023-03-21T08:32:25;12.20;99.90
29803;DHT22;16702;50.898;4.662;2023-03-21T08:35:00;12.20;99.90
29803;DHT22;16702;50.898;4.662;2023-03-21T08:37:32;12.20;99.90
29803;DHT22;16702;50.898;4.662;2023-03-21T08:40:03;12.20;99.90
29803;DHT22;16702;50.898;4.662;2023-03-21T08:42:35;12.20;99.90
29803;DHT22;16702;50.898;4.662;2023-03-21T08:45:07;12.20;99.90
29803;DHT22;16702;50.898;4.662;2023-03-21T08:47:38;12.20;99.90
29803;DHT22;16702;50.898;4.662;2023-03-21T08:50:13;12.30;99.90
29803;DHT22;16702;50.898;4.662;2023-03-21T08:52:45;12.30;99.90
29803;DHT22;16702;50.898;4.662;2023-03-21T08:55:16;12.30;99.90
29803;DHT22;16702;50.898;4.662;2023-03-21T08:57:47;12.30;99.90
29803;DHT22;16702;50.898;4.662;2023-03-21T09:00:18;12.30;99.90
29803;DHT22;16702;50.898;4.662;2023-03-21T09:02:49;12.40;99.90
29803;DHT22;16702;50.898;4.662;2023-03-21T09:05:24;12.40;99.90
29803;DHT22;16702;50.898;4.662;2023-03-21T09:07:54;12.40;99.90
29803;DHT22;16702;50.898;4.662;2023-03-21T09:10:28;12.40;99.90
29803;DHT22;16702;50.898;4.662;2023-03-21T09:12:59;12.40;99.90
29803;DHT22;16702;50.898;4.662;2023-03-21T09:15:29;12.40;99.90
29803;DHT22;16702;50.898;4.662;2023-03-21T09:18:01;12.50;99.90
29803;DHT22;16702;50.898;4.662;2023-03-21T09:20:43;12.50;99.90
29803;DHT22;16702;50.898;4.662;2023-03-21T09:23:14;12.60;99.90
29803;DHT22;16702;50.898;4.662;2023-03-21T09:25:45;12.60;99.90
29803;DHT22;16702;50.898;4.662;2023-03-21T09:28:15;12.60;99.90
29803;DHT22;16702;50.898;4.662;2023-03-21T09:30:46;12.60;99.90
29803;DHT22;16702;50.898;4.662;2023-03-21T09:33:16;12.70;99.90
29803;DHT22;16702;50.898;4.662;2023-03-21T09:35:55;12.70;99.90
29803;DHT22;16702;50.898;4.662;2023-03-21T09:38:27;12.70;99.90
29803;DHT22;16702;50.898;4.662;2023-03-21T09:41:09;12.70;99.90
29803;DHT22;16702;50.898;4.662;2023-03-21T09:43:53;12.70;99.90
29803;DHT22;16702;50.898;4.662;2023-03-21T09:46:31;12.70;99.90
29803;DHT22;16702;50.898;4.662;2023-03-21T09:49:07;12.70;99.90
29803;DHT22;16702;50.898;4.662;2023-03-21T09:51:46;12.80;99.90
29803;DHT22;16702;50.898;4.662;2023-03-21T09:54:22;12.80;99.90
29803;DHT22;16702;50.898;4.662;2023-03-21T09:56:56;12.80;99.90
29803;DHT22;16702;50.898;4.662;2023-03-21T09:59:32;12.80;99.90
29803;DHT22;16702;50.898;4.662;2023-03-21T10:02:19;12.90;99.90
29803;DHT22;16702;50.898;4.662;2023-03-21T10:05:09;12.90;99.90
29803;DHT22;16702;50.898;4.662;2023-03-21T10:07:45;12.90;99.90
29803;DHT22;16702;50.898;4.662;2023-03-21T10:10:20;13.00;99.90
29803;DHT22;16702;50.898;4.662;2023-03-21T10:12:54;13.00;99.90
29803;DHT22;16702;50.898;4.662;2023-03-21T10:15:26;13.10;99.90
29803;DHT22;16702;50.898;4.662;2023-03-21T10:18:00;13.10;99.90
29803;DHT22;16702;50.898;4.662;2023-03-21T10:20:33;13.10;99.90
29803;DHT22;16702;50.898;4.662;2023-03-21T10:23:11;13.10;99.90
29803;DHT22;16702;50.898;4.662;2023-03-21T10:25:44;13.20;99.90
29803;DHT22;16702;50.898;4.662;2023-03-21T10:28:19;13.20;99.90
29803;DHT22;16702;50.898;4.662;2023-03-21T10:30:51;13.20;99.90
29803;DHT22;16702;50.898;4.662;2023-03-21T10:33:25;13.20;99.90
29803;DHT22;16702;50.898;4.662;2023-03-21T10:35:59;13.20;99.90
29803;DHT22;16702;50.898;4.662;2023-03-21T10:38:34;13.30;99.90
29803;DHT22;16702;50.898;4.662;2023-03-21T10:41:05;13.30;99.90
29803;DHT22;16702;50.898;4.662;2023-03-21T10:43:37;13.30;99.90
29803;DHT22;16702;50.898;4.662;2023-03-21T10:46:11;13.30;99.90
29803;DHT22;16702;50.898;4.662;2023-03-21T10:48:43;13.40;99.90
29803;DHT22;16702;50.898;4.662;2023-03-21T10:51:18;13.50;99.90
29803;DHT22;16702;50.898;4.662;2023-03-21T10:53:55;13.40;99.90
29803;DHT22;16702;50.898;4.662;2023-03-21T10:56:28;13.50;99.90
29803;DHT22;16702;50.898;4.662;2023-03-21T10:58:59;13.60;99.90
29803;DHT22;16702;50.898;4.662;2023-03-21T11:01:34;13.70;99.90
29803;DHT22;16702;50.898;4.662;2023-03-21T11:04:07;13.70;99.90
29803;DHT22;16702;50.898;4.662;2023-03-21T11:06:40;13.70;99.90
29803;DHT22;16702;50.898;4.662;2023-03-21T11:09:18;13.80;99.90
29803;DHT22;16702;50.898;4.662;2023-03-21T11:11:53;14.00;99.90
29803;DHT22;16702;50.898;4.662;2023-03-21T11:14:30;14.10;99.90
29803;DHT22;16702;50.898;4.662;2023-03-21T11:17:01;14.20;99.90
29803;DHT22;16702;50.898;4.662;2023-03-21T11:19:36;14.20;99.90
29803;DHT22;16702;50.898;4.662;2023-03-21T11:22:07;14.20;99.90
29803;DHT22;16702;50.898;4.662;2023-03-21T11:24:47;14.30;99.90
29803;DHT22;16702;50.898;4.662;2023-03-21T11:27:19;14.30;99.90
29803;DHT22;16702;50.898;4.662;2023-03-21T11:29:51;14.40;99.90
29803;DHT22;16702;50.898;4.662;2023-03-21T11:32:29;14.40;99.90
29803;DHT22;16702;50.898;4.662;2023-03-21T11:35:02;14.40;99.90
29803;DHT22;16702;50.898;4.662;2023-03-21T11:37:38;14.40;99.90
29803;DHT22;16702;50.898;4.662;2023-03-21T11:40:21;14.50;99.90
29803;DHT22;16702;50.898;4.662;2023-03-21T11:42:54;14.70;99.90
29803;DHT22;16702;50.898;4.662;2023-03-21T11:45:26;14.90;99.90
29803;DHT22;16702;50.898;4.662;2023-03-21T11:47:58;14.80;99.90
29803;DHT22;16702;50.898;4.662;2023-03-21T11:50:35;14.70;99.90
29803;DHT22;16702;50.898;4.662;2023-03-21T11:53:24;14.70;99.90
29803;DHT22;16702;50.898;4.662;2023-03-21T11:56:19;14.80;99.90
29803;DHT22;16702;50.898;4.662;2023-03-21T11:59:12;15.00;99.90
29803;DHT22;16702;50.898;4.662;2023-03-21T12:02:02;14.90;99.90
29803;DHT22;16702;50.898;4.662;2023-03-21T12:04:39;15.00;99.90
29803;DHT22;16702;50.898;4.662;2023-03-21T12:07:21;15.10;99.90
29803;DHT22;16702;50.898;4.662;2023-03-21T12:10:00;15.20;99.90
29803;DHT22;16702;50.898;4.662;2023-03-21T12:12:45;15.20;99.90
29803;DHT22;16702;50.898;4.662;2023-03-21T12:15:20;15.30;99.90
29803;DHT22;16702;50.898;4.662;2023-03-21T12:18:05;15.50;99.90
29803;DHT22;16702;50.898;4.662;2023-03-21T12:20:39;15.40;99.90
29803;DHT22;16702;50.898;4.662;2023-03-21T12:23:41;15.40;99.90
29803;DHT22;16702;50.898;4.662;2023-03-21T12:26:19;15.30;99.90
29803;DHT22;16702;50.898;4.662;2023-03-21T12:29:13;15.20;99.90
29803;DHT22;16702;50.898;4.662;2023-03-21T12:31:55;15.20;99.90
29803;DHT22;16702;50.898;4.662;2023-03-21T12:37:27;15.20;99.90
29803;DHT22;16702;50.898;4.662;2023-03-21T12:40:09;15.30;99.90
29803;DHT22;16702;50.898;4.662;2023-03-21T12:42:59;15.20;99.90
29803;DHT22;16702;50.898;4.662;2023-03-21T12:45:39;15.20;99.90
29803;DHT22;16702;50.898;4.662;2023-03-21T12:48:17;15.20;99.90
29803;DHT22;16702;50.898;4.662;2023-03-21T12:50:53;15.20;99.90
29803;DHT22;16702;50.898;4.662;2023-03-21T12:53:38;15.20;99.90
29803;DHT22;16702;50.898;4.662;2023-03-21T12:56:14;15.30;99.90
29803;DHT22;16702;50.898;4.662;2023-03-21T12:58:56;15.30;99.90
29803;DHT22;16702;50.898;4.662;2023-03-21T13:01:34;15.20;99.90
29803;DHT22;16702;50.898;4.662;2023-03-21T13:04:07;15.30;99.90
29803;DHT22;16702;50.898;4.662;2023-03-21T13:06:42;15.30;99.90
29803;DHT22;16702;50.898;4.662;2023-03-21T13:09:16;15.30;99.90
29803;DHT22;16702;50.898;4.662;2023-03-21T13:11:58;15.30;99.90
29803;DHT22;16702;50.898;4.662;2023-03-21T13:14:37;15.20;99.90
29803;DHT22;16702;50.898;4.662;2023-03-21T13:17:18;15.30;99.90
29803;DHT22;16702;50.898;4.662;2023-03-21T13:19:57;15.30;99.90
29803;DHT22;16702;50.898;4.662;2023-03-21T13:22:31;15.30;99.90
29803;DHT22;16702;50.898;4.662;2023-03-21T13:25:03;15.30;99.90
29803;DHT22;16702;50.898;4.662;2023-03-21T13:27:36;15.40;99.90
29803;DHT22;16702;50.898;4.662;2023-03-21T13:30:19;15.50;99.90
29803;DHT22;16702;50.898;4.662;2023-03-21T13:33:04;15.50;99.90
29803;DHT22;16702;50.898;4.662;2023-03-21T13:35:36;15.60;99.90
29803;DHT22;16702;50.898;4.662;2023-03-21T13:38:13;15.60;99.90
29803;DHT22;16702;50.898;4.662;2023-03-21T13:40:47;15.50;99.90
29803;DHT22;16702;50.898;4.662;2023-03-21T13:43:34;15.60;99.90
29803;DHT22;16702;50.898;4.662;2023-03-21T13:46:09;15.70;99.90
29803;DHT22;16702;50.898;4.662;2023-03-21T13:48:53;15.80;99.90
29803;DHT22;16702;50.898;4.662;2023-03-21T13:51:42;15.80;99.90
29803;DHT22;16702;50.898;4.662;2023-03-21T13:54:20;15.80;99.90
29803;DHT22;16702;50.898;4.662;2023-03-21T13:56:55;15.80;99.90
29803;DHT22;16702;50.898;4.662;2023-03-21T13:59:39;15.80;99.90
29803;DHT22;16702;50.898;4.662;2023-03-21T14:02:28;15.80;99.90
29803;DHT22;16702;50.898;4.662;2023-03-21T14:05:04;15.80;99.90
29803;DHT22;16702;50.898;4.662;2023-03-21T14:07:39;15.80;99.90
29803;DHT22;16702;50.898;4.662;2023-03-21T14:10:18;15.80;99.90
29803;DHT22;16702;50.898;4.662;2023-03-21T14:12:51;15.70;99.90
29803;DHT22;16702;50.898;4.662;2023-03-21T14:15:23;15.80;99.90
29803;DHT22;16702;50.898;4.662;2023-03-21T14:17:56;15.70;99.90
29803;DHT22;16702;50.898;4.662;2023-03-21T14:20:50;15.70;99.90
29803;DHT22;16702;50.898;4.662;2023-03-21T14:23:22;15.70;99.90
29803;DHT22;16702;50.898;4.662;2023-03-21T14:25:52;15.70;99.90
29803;DHT22;16702;50.898;4.662;2023-03-21T14:28:24;15.70;99.90
29803;DHT22;16702;50.898;4.662;2023-03-21T14:30:57;15.80;99.90
29803;DHT22;16702;50.898;4.662;2023-03-21T14:33:31;15.70;99.90
29803;DHT22;16702;50.898;4.662;2023-03-21T14:36:12;15.70;99.90
29803;DHT22;16702;50.898;4.662;2023-03-21T14:38:53;15.70;99.90
29803;DHT22;16702;50.898;4.662;2023-03-21T14:41:26;15.70;99.90
29803;DHT22;16702;50.898;4.662;2023-03-21T14:44:17;15.60;99.90
29803;DHT22;16702;50.898;4.662;2023-03-21T14:46:53;15.50;99.90
29803;DHT22;16702;50.898;4.662;2023-03-21T14:49:29;15.60;99.90
29803;DHT22;16702;50.898;4.662;2023-03-21T14:52:04;15.50;99.90
29803;DHT22;16702;50.898;4.662;2023-03-21T14:54:38;15.50;99.90
29803;DHT22;16702;50.898;4.662;2023-03-21T14:57:12;15.50;99.90
29803;DHT22;16702;50.898;4.662;2023-03-21T14:59:43;15.40;99.90
29803;DHT22;16702;50.898;4.662;2023-03-21T15:02:18;15.40;99.90
29803;DHT22;16702;50.898;4.662;2023-03-21T15:04:51;15.30;99.90
29803;DHT22;16702;50.898;4.662;2023-03-21T15:07:28;15.30;99.90
29803;DHT22;16702;50.898;4.662;2023-03-21T15:10:01;15.40;99.90
29803;DHT22;16702;50.898;4.662;2023-03-21T15:12:32;15.30;99.90
29803;DHT22;16702;50.898;4.662;2023-03-21T15:15:03;15.30;99.90
29803;DHT22;16702;50.898;4.662;2023-03-21T15:17:34;15.40;99.90
29803;DHT22;16702;50.898;4.662;2023-03-21T15:20:06;15.30;99.90
29803;DHT22;16702;50.898;4.662;2023-03-21T15:22:42;15.40;99.90
29803;DHT22;16702;50.898;4.662;2023-03-21T15:25:17;15.40;99.90
29803;DHT22;16702;50.898;4.662;2023-03-21T15:27:48;15.40;99.90
29803;DHT22;16702;50.898;4.662;2023-03-21T15:30:22;15.30;99.90
29803;DHT22;16702;50.898;4.662;2023-03-21T15:32:54;15.40;99.90
29803;DHT22;16702;50.898;4.662;2023-03-21T15:35:37;15.30;99.90
29803;DHT22;16702;50.898;4.662;2023-03-21T15:38:27;15.20;99.90
29803;DHT22;16702;50.898;4.662;2023-03-21T15:41:13;15.20;99.90
29803;DHT22;16702;50.898;4.662;2023-03-21T15:43:46;15.20;99.90
29803;DHT22;16702;50.898;4.662;2023-03-21T15:46:30;15.20;99.90
29803;DHT22;16702;50.898;4.662;2023-03-21T15:49:09;15.20;99.90
29803;DHT22;16702;50.898;4.662;2023-03-21T15:51:41;15.10;99.90
29803;DHT22;16702;50.898;4.662;2023-03-21T15:54:17;15.10;99.90
29803;DHT22;16702;50.898;4.662;2023-03-21T15:56:53;15.10;99.90
29803;DHT22;16702;50.898;4.662;2023-03-21T15:59:26;15.10;99.90
29803;DHT22;16702;50.898;4.662;2023-03-21T16:01:57;15.10;99.90
29803;DHT22;16702;50.898;4.662;2023-03-21T16:04:27;15.10;99.90
29803;DHT22;16702;50.898;4.662;2023-03-21T16:07:00;15.00;99.90
29803;DHT22;16702;50.898;4.662;2023-03-21T16:09:42;15.00;99.90
29803;DHT22;16702;50.898;4.662;2023-03-21T16:12:13;14.90;99.90
29803;DHT22;16702;50.898;4.662;2023-03-21T16:14:45;14.90;99.90
29803;DHT22;16702;50.898;4.662;2023-03-21T16:17:31;14.90;99.90
29803;DHT22;16702;50.898;4.662;2023-03-21T16:20:12;14.90;99.90
29803;DHT22;16702;50.898;4.662;2023-03-21T16:22:46;14.90;99.90
29803;DHT22;16702;50.898;4.662;2023-03-21T16:25:20;14.80;99.90
29803;DHT22;16702;50.898;4.662;2023-03-21T16:27:51;14.80;99.90
29803;DHT22;16702;50.898;4.662;2023-03-21T16:30:21;14.80;99.90
29803;DHT22;16702;50.898;4.662;2023-03-21T16:32:52;14.70;99.90
29803;DHT22;16702;50.898;4.662;2023-03-21T16:35:22;14.80;99.90
29803;DHT22;16702;50.898;4.662;2023-03-21T16:37:54;14.80;99.90
29803;DHT22;16702;50.898;4.662;2023-03-21T16:40:30;14.80;99.90
29803;DHT22;16702;50.898;4.662;2023-03-21T16:43:03;14.80;99.90